sensor_id;sensor_type;location;lat;lon;timestamp;temperature;humidity
41080;DHT22;26826;50.718;7.114;2022-12-15T00:07:50;-5.10;99.90
41080;DHT22;26826;50.718;7.114;2022-12-15T00:18:09;-5.20;99.90
41080;DHT22;26826;50.718;7.114;2022-12-15T00:28:28;-5.40;99.90
41080;DHT22;26826;50.718;7.114;2022-12-15T00:38:47;-5.60;99.90
41080;DHT22;26826;50.718;7.114;2022-12-15T00:48:48;-5.70;99.90
41080;DHT22;26826;50.718;7.114;2022-12-15T00:58:48;-5.70;99.90
41080;DHT22;26826;50.718;7.114;2022-12-15T01:09:09;-5.90;99.90
41080;DHT22;26826;50.718;7.114;2022-12-15T01:19:30;-5.90;99.90
41080;DHT22;26826;50.718;7.114;2022-12-15T01:29:49;-6.00;99.90
41080;DHT22;26826;50.718;7.114;2022-12-15T01:39:49;-6.10;99.90
41080;DHT22;26826;50.718;7.114;2022-12-15T01:50:12;-6.40;99.90
41080;DHT22;26826;50.718;7.114;2022-12-15T02:00:14;-6.20;99.90
41080;DHT22;26826;50.718;7.114;2022-12-15T02:10:15;-6.30;99.90
41080;DHT22;26826;50.718;7.114;2022-12-15T02:31:02;-6.40;99.90
41080;DHT22;26826;50.718;7.114;2022-12-15T02:41:44;-6.60;99.90
41080;DHT22;26826;50.718;7.114;2022-12-15T02:52:17;-6.70;99.90
41080;DHT22;26826;50.718;7.114;2022-12-15T03:02:23;-7.00;99.90
41080;DHT22;26826;50.718;7.114;2022-12-15T03:12:24;-7.10;99.90
41080;DHT22;26826;50.718;7.114;2022-12-15T03:22:24;-7.00;99.90
41080;DHT22;26826;50.718;7.114;2022-12-15T03:32:25;-7.00;99.90
41080;DHT22;26826;50.718;7.114;2022-12-15T03:42:26;-7.10;99.90
41080;DHT22;26826;50.718;7.114;2022-12-15T03:52:49;-7.30;99.90
41080;DHT22;26826;50.718;7.114;2022-12-15T04:02:51;-7.30;99.90
41080;DHT22;26826;50.718;7.114;2022-12-15T04:12:58;-7.30;99.90
41080;DHT22;26826;50.718;7.114;2022-12-15T04:22:59;-7.20;99.90
41080;DHT22;26826;50.718;7.114;2022-12-15T04:33:00;-7.10;99.90
41080;DHT22;26826;50.718;7.114;2022-12-15T04:53:23;-7.40;99.90
41080;DHT22;26826;50.718;7.114;2022-12-15T05:03:42;-7.60;99.90
41080;DHT22;26826;50.718;7.114;2022-12-15T05:14:02;-7.70;99.90
41080;DHT22;26826;50.718;7.114;2022-12-15T05:24:21;-7.50;99.90
41080;DHT22;26826;50.718;7.114;2022-12-15T05:34:40;-7.30;99.90
41080;DHT22;26826;50.718;7.114;2022-12-15T05:44:41;-7.30;99.90
41080;DHT22;26826;50.718;7.114;2022-12-15T05:54:42;-7.40;99.90
41080;DHT22;26826;50.718;7.114;2022-12-15T06:04:43;-7.40;99.90
41080;DHT22;26826;50.718;7.114;2022-12-15T06:21:57;-7.10;99.90
41080;DHT22;26826;50.718;7.114;2022-12-15T06:31:58;-6.80;99.90
41080;DHT22;26826;50.718;7.114;2022-12-15T06:42:04;-6.90;99.90
41080;DHT22;26826;50.718;7.114;2022-12-15T06:52:04;-6.60;99.90
41080;DHT22;26826;50.718;7.114;2022-12-15T07:02:15;-6.40;99.90
41080;DHT22;26826;50.718;7.114;2022-12-15T07:12:16;-6.40;99.90
41080;DHT22;26826;50.718;7.114;2022-12-15T07:22:17;-6.20;99.90
41080;DHT22;26826;50.718;7.114;2022-12-15T07:32:18;-6.00;99.90
41080;DHT22;26826;50.718;7.114;2022-12-15T07:42:18;-5.90;99.90
41080;DHT22;26826;50.718;7.114;2022-12-15T07:52:19;-5.80;99.90
41080;DHT22;26826;50.718;7.114;2022-12-15T08:02:20;-5.60;99.90
41080;DHT22;26826;50.718;7.114;2022-12-15T08:12:20;-5.50;99.90
41080;DHT22;26826;50.718;7.114;2022-12-15T08:22:21;-5.30;99.90
41080;DHT22;26826;50.718;7.114;2022-12-15T08:32:21;-5.30;99.90
41080;DHT22;26826;50.718;7.114;2022-12-15T08:42:22;-5.00;99.90
41080;DHT22;26826;50.718;7.114;2022-12-15T08:52:23;-4.80;99.90
41080;DHT22;26826;50.718;7.114;2022-12-15T09:02:23;-4.60;99.90
41080;DHT22;26826;50.718;7.114;2022-12-15T09:12:24;-4.50;99.90
41080;DHT22;26826;50.718;7.114;2022-12-15T09:22:24;-4.80;99.90
41080;DHT22;26826;50.718;7.114;2022-12-15T09:32:25;-4.70;99.90
41080;DHT22;26826;50.718;7.114;2022-12-15T09:42:29;-4.60;99.90
41080;DHT22;26826;50.718;7.114;2022-12-15T09:52:37;-4.60;99.90
41080;DHT22;26826;50.718;7.114;2022-12-15T10:13:19;-3.90;99.90
41080;DHT22;26826;50.718;7.114;2022-12-15T10:23:24;-3.90;99.90
41080;DHT22;26826;50.718;7.114;2022-12-15T10:33:33;-4.10;99.90
41080;DHT22;26826;50.718;7.114;2022-12-15T10:54:15;-4.00;99.90
41080;DHT22;26826;50.718;7.114;2022-12-15T11:04:24;-4.10;99.90
41080;DHT22;26826;50.718;7.114;2022-12-15T11:14:28;-3.50;99.90
41080;DHT22;26826;50.718;7.114;2022-12-15T11:24:56;-3.00;99.90
41080;DHT22;26826;50.718;7.114;2022-12-15T11:34:59;-2.60;99.90
41080;DHT22;26826;50.718;7.114;2022-12-15T11:45:26;-2.10;99.90
41080;DHT22;26826;50.718;7.114;2022-12-15T11:55:40;-2.30;99.90
41080;DHT22;26826;50.718;7.114;2022-12-15T12:06:00;-2.00;99.90
41080;DHT22;26826;50.718;7.114;2022-12-15T12:26:44;-0.50;99.90
41080;DHT22;26826;50.718;7.114;2022-12-15T12:36:46;0.40;99.90
41080;DHT22;26826;50.718;7.114;2022-12-15T12:46:51;-0.30;99.90
41080;DHT22;26826;50.718;7.114;2022-12-15T12:56:53;-0.90;99.90
41080;DHT22;26826;50.718;7.114;2022-12-15T13:06:55;0.00;99.90
41080;DHT22;26826;50.718;7.114;2022-12-15T13:17:05;0.30;99.90
41080;DHT22;26826;50.718;7.114;2022-12-15T13:37:40;1.50;99.90
41080;DHT22;26826;50.718;7.114;2022-12-15T13:47:50;1.00;99.90
41080;DHT22;26826;50.718;7.114;2022-12-15T14:08:08;2.00;99.90
41080;DHT22;26826;50.718;7.114;2022-12-15T14:18:31;1.70;99.90
41080;DHT22;26826;50.718;7.114;2022-12-15T14:28:35;2.00;99.90
41080;DHT22;26826;50.718;7.114;2022-12-15T14:38:48;1.70;99.90
41080;DHT22;26826;50.718;7.114;2022-12-15T14:48:57;1.30;99.90
41080;DHT22;26826;50.718;7.114;2022-12-15T14:59:03;0.20;99.90
41080;DHT22;26826;50.718;7.114;2022-12-15T15:09:13;-0.90;99.90
41080;DHT22;26826;50.718;7.114;2022-12-15T15:19:20;-1.60;99.90
41080;DHT22;26826;50.718;7.114;2022-12-15T15:29:39;-1.90;99.90
41080;DHT22;26826;50.718;7.114;2022-12-15T15:39:43;-2.40;99.90
41080;DHT22;26826;50.718;7.114;2022-12-15T15:49:44;-2.90;99.90
41080;DHT22;26826;50.718;7.114;2022-12-15T15:59:45;-3.50;99.90
41080;DHT22;26826;50.718;7.114;2022-12-15T16:09:46;-4.00;99.90
41080;DHT22;26826;50.718;7.114;2022-12-15T16:19:47;-4.00;99.90
41080;DHT22;26826;50.718;7.114;2022-12-15T16:29:48;-4.20;99.90
41080;DHT22;26826;50.718;7.114;2022-12-15T16:39:48;-4.40;99.90
41080;DHT22;26826;50.718;7.114;2022-12-15T16:49:49;-4.50;99.90
41080;DHT22;26826;50.718;7.114;2022-12-15T16:59:50;-4.60;99.90
41080;DHT22;26826;50.718;7.114;2022-12-15T17:09:51;-4.70;99.90
41080;DHT22;26826;50.718;7.114;2022-12-15T17:19:51;-4.50;99.90
41080;DHT22;26826;50.718;7.114;2022-12-15T17:29:53;-4.50;99.90
41080;DHT22;26826;50.718;7.114;2022-12-15T17:39:54;-4.50;99.90
41080;DHT22;26826;50.718;7.114;2022-12-15T17:49:55;-4.50;99.90
41080;DHT22;26826;50.718;7.114;2022-12-15T17:59:55;-4.50;99.90
41080;DHT22;26826;50.718;7.114;2022-12-15T18:09:56;-4.50;99.90
41080;DHT22;26826;50.718;7.114;2022-12-15T18:19:57;-4.60;99.90
41080;DHT22;26826;50.718;7.114;2022-12-15T18:29:57;-4.50;99.90
41080;DHT22;26826;50.718;7.114;2022-12-15T18:39:58;-4.70;99.90
41080;DHT22;26826;50.718;7.114;2022-12-15T18:49:58;-4.70;99.90
41080;DHT22;26826;50.718;7.114;2022-12-15T19:00:26;-4.80;99.90
41080;DHT22;26826;50.718;7.114;2022-12-15T19:10:28;-4.80;99.90
41080;DHT22;26826;50.718;7.114;2022-12-15T19:20:29;-4.90;99.90
41080;DHT22;26826;50.718;7.114;2022-12-15T19:30:49;-5.00;99.90
41080;DHT22;26826;50.718;7.114;2022-12-15T19:40:52;-5.20;99.90
41080;DHT22;26826;50.718;7.114;2022-12-15T19:50:53;-5.20;99.90
41080;DHT22;26826;50.718;7.114;2022-12-15T20:00:55;-5.30;99.90
41080;DHT22;26826;50.718;7.114;2022-12-15T20:10:56;-5.40;99.90
41080;DHT22;26826;50.718;7.114;2022-12-15T20:20:57;-5.40;99.90
41080;DHT22;26826;50.718;7.114;2022-12-15T20:30:58;-5.60;99.90
41080;DHT22;26826;50.718;7.114;2022-12-15T20:41:00;-5.60;99.90
41080;DHT22;26826;50.718;7.114;2022-12-15T20:51:02;-5.80;99.90
41080;DHT22;26826;50.718;7.114;2022-12-15T21:01:11;-5.90;99.90
41080;DHT22;26826;50.718;7.114;2022-12-15T21:21:27;-6.10;99.90
41080;DHT22;26826;50.718;7.114;2022-12-15T21:31:28;-6.00;99.90
41080;DHT22;26826;50.718;7.114;2022-12-15T21:41:29;-6.10;99.90
41080;DHT22;26826;50.718;7.114;2022-12-15T21:51:35;-6.10;99.90
41080;DHT22;26826;50.718;7.114;2022-12-15T22:01:35;-6.20;99.90
41080;DHT22;26826;50.718;7.114;2022-12-15T22:11:36;-6.20;99.90
41080;DHT22;26826;50.718;7.114;2022-12-15T22:21:37;-6.40;99.90
41080;DHT22;26826;50.718;7.114;2022-12-15T22:31:38;-6.60;99.90
41080;DHT22;26826;50.718;7.114;2022-12-15T22:41:40;-6.60;99.90
41080;DHT22;26826;50.718;7.114;2022-12-15T22:51:41;-6.60;99.90
41080;DHT22;26826;50.718;7.114;2022-12-15T23:01:42;-6.60;99.90
41080;DHT22;26826;50.718;7.114;2022-12-15T23:11:43;-6.50;99.90
41080;DHT22;26826;50.718;7.114;2022-12-15T23:21:43;-6.60;99.90
41080;DHT22;26826;50.718;7.114;2022-12-15T23:31:44;-6.80;99.90
41080;DHT22;26826;50.718;7.114;2022-12-15T23:41:44;-6.90;99.90
41080;DHT22;26826;50.718;7.114;2022-12-15T23:51:45;-7.30;99.90
